Terminal Aerodrome Forecast
Issued by NWS

Current Version | Previous Version | Text Only | Print | Product List | Glossary On
Versions: 1 2 3 4 5 6 7 8 9 10 11 12 13 14
000
FTUS43 KTOP 240233 AAA
TAFMHK
TAF AMD
KMHK 240233Z 2403/2424 35025G40KT P6SM VCTS FEW070CB SCT150
     FM240400 20008KT P6SM SCT200 WS020/22050KT
     FM241300 18007KT P6SM BKN200=

USA.gov is the U.S. government's official web portal to all federal, state and local government web resources and services.